Time;durP1;ratioP1;P1;durP2;ratioP2;P2;SDS_P1;SDS_P2;PMS_P1;PMS_P2;Temp;Humidity;BMP_temperature;BMP_pressure;BME280_temperature;BME280_humidity;BME280_pressure;Samples;Min_cycle;Max_cycle;Signal;HPM_P1;HPM_P2
2023/01/16 04:44:24;;;;;;;26.62;13.15;;;;;;;4.36;100.00;99487.00;5993040;28;20106;-81
2023/01/16 04:47:27;;;;;;;27.35;13.80;;;;;;;4.32;100.00;99486.47;5330594;33;34749;-80
2023/01/16 04:50:30;;;;;;;30.12;14.30;;;;;;;4.31;100.00;99495.47;5327771;33;33993;-80
2023/01/16 04:53:32;;;;;;;27.73;14.25;;;;;;;4.39;100.00;99477.81;5332861;33;34194;-82
2023/01/16 04:56:35;;;;;;;29.83;14.65;;;;;;;4.38;100.00;99473.50;5327859;33;35206;-82
2023/01/16 04:59:39;;;;;;;30.40;14.77;;;;;;;4.33;100.00;99474.00;5325541;33;33991;-82
2023/01/16 05:02:42;;;;;;;31.08;16.27;;;;;;;4.29;100.00;99473.47;5325529;33;34033;-82
2023/01/16 05:05:45;;;;;;;28.02;14.32;;;;;;;4.23;100.00;99467.94;5324018;33;33824;-82
2023/01/16 05:08:47;;;;;;;32.67;16.10;;;;;;;4.27;100.00;99464.81;5323887;33;33845;-80
2023/01/16 05:11:51;;;;;;;29.95;16.62;;;;;;;4.30;100.00;99461.00;5311099;33;32629;-81
2023/01/16 05:14:53;;;;;;;31.80;16.37;;;;;;;4.25;100.00;99460.63;5325227;33;33911;-80
2023/01/16 05:17:57;;;;;;;33.17;17.02;;;;;;;4.15;100.00;99460.75;5324798;33;35360;-81
2023/01/16 05:21:00;;;;;;;32.72;16.90;;;;;;;4.17;100.00;99453.44;5324974;33;33889;-81
2023/01/16 05:24:03;;;;;;;33.92;18.27;;;;;;;4.22;100.00;99442.31;5311380;33;33932;-81
2023/01/16 05:27:06;;;;;;;38.90;20.77;;;;;;;4.14;100.00;99452.91;5318475;33;34464;-80
2023/01/16 05:30:11;;;;;;;38.30;19.10;;;;;;;4.12;100.00;99453.06;5324189;33;34410;-81
2023/01/16 05:33:13;;;;;;;37.53;20.25;;;;;;;4.12;100.00;99454.91;5324433;33;33969;-81
2023/01/16 05:36:16;;;;;;;43.53;21.45;;;;;;;4.10;100.00;99452.41;5325460;33;33946;-80
2023/01/16 05:39:19;;;;;;;43.33;22.23;;;;;;;4.07;100.00;99447.41;5324714;33;33886;-81
2023/01/16 05:42:24;;;;;;;37.15;20.83;;;;;;;4.07;100.00;99452.72;5324363;33;34918;-80
2023/01/16 05:45:27;;;;;;;35.20;19.35;;;;;;;4.15;100.00;99450.09;5323639;33;33966;-80
2023/01/16 05:48:32;;;;;;;37.47;20.15;;;;;;;4.08;100.00;99451.72;5324226;33;35460;-80
2023/01/16 05:51:35;;;;;;;40.53;22.52;;;;;;;4.14;100.00;99455.59;5324247;33;34790;-80
2023/01/16 05:54:37;;;;;;;44.28;22.92;;;;;;;4.05;100.00;99460.03;5325044;33;33988;-80
2023/01/16 05:57:40;;;;;;;47.03;23.92;;;;;;;4.04;100.00;99453.06;5324836;33;34433;-84
2023/01/16 06:00:43;;;;;;;45.88;24.48;;;;;;;4.01;100.00;99454.19;5311141;33;32812;-84
2023/01/16 06:03:46;;;;;;;47.45;25.10;;;;;;;3.95;100.00;99459.28;5324673;33;34011;-84
2023/01/16 06:06:49;;;;;;;43.53;22.77;;;;;;;3.93;100.00;99464.78;5325892;33;34727;-85
2023/01/16 06:09:52;;;;;;;40.63;20.30;;;;;;;3.92;100.00;99463.12;5326167;33;34005;-81
2023/01/16 06:12:54;;;;;;;39.63;20.67;;;;;;;3.95;100.00;99468.16;5325288;33;34469;-80
2023/01/16 06:15:57;;;;;;;41.10;22.15;;;;;;;3.97;100.00;99466.13;5324965;33;33909;-80
2023/01/16 06:19:01;;;;;;;39.05;20.85;;;;;;;4.12;100.00;99455.72;5325002;33;34020;-80
2023/01/16 06:22:04;;;;;;;38.97;21.40;;;;;;;4.02;100.00;99455.03;5324396;33;33652;-81
2023/01/16 06:25:07;;;;;;;44.92;22.42;;;;;;;4.01;100.00;99454.19;5328046;33;34434;-80
2023/01/16 06:28:10;;;;;;;40.88;22.67;;;;;;;4.13;100.00;99465.41;5313663;33;32410;-80
2023/01/16 06:31:13;;;;;;;50.88;24.80;;;;;;;4.03;100.00;99454.03;5328191;33;34377;-80
2023/01/16 06:34:16;;;;;;;41.17;21.87;;;;;;;4.02;100.00;99444.37;5328905;33;34860;-81
2023/01/16 06:37:19;;;;;;;42.67;22.15;;;;;;;4.02;100.00;99437.22;5325947;33;34246;-81
2023/01/16 06:40:22;;;;;;;35.33;19.17;;;;;;;3.99;100.00;99434.03;5324727;33;34461;-81
2023/01/16 06:43:26;;;;;;;35.60;18.35;;;;;;;3.98;100.00;99422.56;5325143;33;34008;-81
2023/01/16 06:46:29;;;;;;;31.60;18.00;;;;;;;4.01;100.00;99424.91;5325667;33;33589;-81
2023/01/16 06:49:32;;;;;;;37.03;19.12;;;;;;;4.01;100.00;99429.41;5325357;33;35007;-81
2023/01/16 06:52:35;;;;;;;33.35;17.10;;;;;;;4.03;100.00;99417.56;5326698;33;33984;-81
2023/01/16 06:55:40;;;;;;;30.95;16.23;;;;;;;4.01;100.00;99422.25;5324959;33;34812;-80
2023/01/16 06:58:43;;;;;;;29.00;16.05;;;;;;;4.10;100.00;99425.78;5321387;33;147367;-80
2023/01/16 07:01:46;;;;;;;29.23;14.75;;;;;;;4.09;100.00;99424.94;5329778;33;34658;-81
2023/01/16 07:04:49;;;;;;;30.12;15.27;;;;;;;4.04;100.00;99416.59;5325600;33;34448;-81
2023/01/16 07:07:53;;;;;;;40.08;19.65;;;;;;;4.03;100.00;99420.22;5324925;33;34730;-80
2023/01/16 07:11:00;;;;;;;38.92;20.35;;;;;;;4.12;100.00;99433.59;5324201;33;35717;-80
2023/01/16 07:24:22;;;;;;;32.28;17.27;;;;;;;4.28;100.00;99433.69;5322540;33;35309;-81
2023/01/16 07:27:25;;;;;;;31.45;16.08;;;;;;;4.29;100.00;99425.50;5323963;33;33959;-85
2023/01/16 07:30:28;;;;;;;31.50;16.83;;;;;;;4.35;100.00;99424.03;5324343;33;33951;-84
2023/01/16 07:33:31;;;;;;;33.80;18.10;;;;;;;4.51;100.00;99415.25;5306628;33;33176;-85
2023/01/16 07:36:34;;;;;;;34.95;19.90;;;;;;;4.50;100.00;99417.09;5322244;33;33959;-80
2023/01/16 07:39:37;;;;;;;34.72;17.77;;;;;;;4.45;100.00;99418.59;5323552;33;34314;-80
2023/01/16 07:42:42;;;;;;;43.58;17.77;;;;;;;4.40;100.00;99413.72;5323994;33;33930;-81
2023/01/16 07:45:51;;;;;;;36.70;17.87;;;;;;;4.39;100.00;99408.53;5320696;33;34534;-81
2023/01/16 07:48:56;;;;;;;34.72;18.23;;;;;;;4.44;100.00;99401.72;5320188;33;35293;-81
2023/01/16 07:51:59;;;;;;;32.95;16.92;;;;;;;4.42;100.00;99390.41;5322037;33;34058;-81
2023/01/16 07:55:02;;;;;;;31.77;17.67;;;;;;;4.52;100.00;99383.09;5320094;33;34323;-81
2023/01/16 07:58:05;;;;;;;34.08;17.80;;;;;;;4.40;100.00;99383.59;5321847;33;34146;-80
2023/01/16 08:01:09;;;;;;;32.55;18.12;;;;;;;4.41;100.00;99369.25;5322411;33;33962;-80
2023/01/16 08:04:13;;;;;;;38.65;17.73;;;;;;;4.44;100.00;99375.09;5320913;33;33975;-81
2023/01/16 08:07:15;;;;;;;32.97;16.25;;;;;;;4.43;100.00;99357.44;5321750;33;34953;-80
2023/01/16 08:10:19;;;;;;;29.25;15.43;;;;;;;4.35;100.00;99354.75;5324769;33;34345;-80
2023/01/16 08:13:21;;;;;;;28.30;14.38;;;;;;;4.32;100.00;99350.56;5307201;33;33624;-80
2023/01/16 08:16:24;;;;;;;27.05;13.50;;;;;;;4.25;100.00;99335.41;5302828;33;32737;-80
2023/01/16 08:19:27;;;;;;;30.30;14.35;;;;;;;4.18;100.00;99319.22;5311845;33;32772;-80
2023/01/16 08:22:30;;;;;;;24.17;11.93;;;;;;;4.29;100.00;99310.94;5325116;33;34083;-81
2023/01/16 08:25:33;;;;;;;25.48;13.88;;;;;;;4.36;100.00;99302.28;5327962;33;35466;-81
2023/01/16 08:28:36;;;;;;;27.92;14.20;;;;;;;4.47;100.00;99294.81;5326805;33;35142;-81
2023/01/16 08:31:39;;;;;;;29.23;14.35;;;;;;;4.54;100.00;99300.31;5330145;33;33747;-81
2023/01/16 08:34:42;;;;;;;26.73;14.52;;;;;;;4.49;100.00;99294.66;5311531;33;33932;-81
2023/01/16 08:37:49;;;;;;;25.70;15.82;;;;;;;4.60;100.00;99293.50;5322881;33;34457;-80
2023/01/16 08:40:52;;;;;;;26.75;14.18;;;;;;;4.76;100.00;99286.31;5324684;33;33957;-81
2023/01/16 08:54:08;;;;;;;27.40;14.30;;;;;;;4.51;100.00;99258.84;5313236;33;34424;-85
2023/01/16 08:57:10;;;;;;;24.67;13.07;;;;;;;4.50;100.00;99251.00;5320418;33;33672;-85
2023/01/16 09:00:14;;;;;;;29.12;15.45;;;;;;;4.52;100.00;99246.34;5308457;33;32395;-82
2023/01/16 09:03:17;;;;;;;27.02;14.20;;;;;;;4.49;100.00;99241.34;5321719;33;35275;-81
2023/01/16 09:06:20;;;;;;;25.05;14.30;;;;;;;4.43;100.00;99228.69;5324533;33;33782;-81
2023/01/16 09:09:24;;;;;;;29.33;16.33;;;;;;;4.37;100.00;99216.03;5322293;33;33647;-81
2023/01/16 09:15:48;;;;;;;25.33;13.80;;;;;;;4.43;100.00;99210.88;5332082;33;33827;-81
2023/01/16 09:18:53;;;;;;;27.90;14.15;;;;;;;4.47;100.00;99203.38;5328200;33;34721;-81
2023/01/16 09:21:55;;;;;;;28.77;14.50;;;;;;;4.47;100.00;99187.38;5323749;33;34012;-81
2023/01/16 09:24:58;;;;;;;30.98;15.20;;;;;;;4.54;100.00;99178.56;5322385;33;33680;-81
2023/01/16 09:28:01;;;;;;;33.75;16.00;;;;;;;4.48;100.00;99175.72;5320612;33;33877;-81
2023/01/16 09:31:04;;;;;;;44.00;18.27;;;;;;;4.48;100.00;99171.22;5319440;33;33788;-81
2023/01/16 09:34:07;;;;;;;38.38;16.83;;;;;;;4.51;100.00;99154.06;5301347;33;31339;-81
2023/01/16 09:37:10;;;;;;;31.95;14.43;;;;;;;4.52;100.00;99145.06;5321725;33;33749;-81
2023/01/16 09:40:20;;;;;;;30.73;14.95;;;;;;;4.50;100.00;99139.06;5320103;33;35057;-81
2023/01/16 09:43:41;;;;;;;31.17;15.68;;;;;;;4.54;100.00;99135.06;5322340;33;34728;-81
2023/01/16 09:46:50;;;;;;;31.73;15.30;;;;;;;4.50;100.00;99123.94;5323932;33;33906;-82
2023/01/16 09:50:02;;;;;;;29.85;14.80;;;;;;;4.58;100.00;99107.06;5311271;33;33227;-81
2023/01/16 09:58:34;;;;;;;33.75;15.63;;;;;;;4.43;100.00;99092.78;5311455;33;32424;-81
2023/01/16 10:00:08;;;;;;;30.08;14.75;;;;;;;4.59;100.00;99083.91;5322057;33;34262;-81
2023/01/16 10:03:11;;;;;;;32.92;15.60;;;;;;;4.59;100.00;99082.06;5324045;33;33571;-81
2023/01/16 10:06:33;;;;;;;33.13;14.52;;;;;;;4.52;100.00;99068.59;5324331;33;34317;-81
2023/01/16 10:10:06;;;;;;;35.35;15.68;;;;;;;4.44;100.00;99062.47;5323549;33;34613;-81
2023/01/16 10:13:19;;;;;;;31.60;14.65;;;;;;;4.47;100.00;99056.78;5323978;33;35378;-81
2023/01/16 10:16:25;;;;;;;33.35;14.80;;;;;;;4.42;100.00;99056.50;5308137;33;34246;-80
2023/01/16 10:19:35;;;;;;;35.17;15.73;;;;;;;4.42;100.00;99046.66;5319177;33;34795;-81
2023/01/16 10:22:56;;;;;;;32.92;14.68;;;;;;;4.28;100.00;99040.19;5318313;33;34860;-81
2023/01/16 10:26:22;;;;;;;30.83;13.77;;;;;;;4.31;100.00;99031.03;5327426;33;34971;-81
2023/01/16 10:29:44;;;;;;;31.83;14.32;;;;;;;4.39;100.00;99024.84;5326789;33;34703;-81
2023/01/16 10:32:56;;;;;;;34.42;15.77;;;;;;;4.44;100.00;99007.34;5306993;33;32772;-85
2023/01/16 10:36:02;;;;;;;31.23;15.50;;;;;;;4.42;100.00;99011.19;5324195;33;34670;-81
2023/01/16 10:39:08;;;;;;;31.20;15.48;;;;;;;4.46;100.00;98993.84;5322891;33;34161;-81
2023/01/16 10:49:28;;;;;;;34.13;15.45;;;;;;;4.90;100.00;98979.97;5322556;33;34431;-81
2023/01/16 10:52:32;;;;;;;32.80;15.05;;;;;;;4.83;100.00;98973.69;5320535;33;34356;-81
2023/01/16 10:55:39;;;;;;;35.58;16.80;;;;;;;4.82;100.00;98972.00;5322280;33;34427;-80
2023/01/16 10:58:42;;;;;;;31.48;15.13;;;;;;;4.87;100.00;98959.00;5322750;33;34237;-80
2023/01/16 11:01:47;;;;;;;33.58;14.55;;;;;;;4.88;100.00;98948.13;5322565;33;33958;-81
2023/01/16 11:04:52;;;;;;;32.67;14.35;;;;;;;4.87;100.00;98940.31;5321389;33;34833;-81
2023/01/16 11:08:01;;;;;;;30.77;14.80;;;;;;;4.85;100.00;98937.00;5322437;33;33828;-82
2023/01/16 11:18:27;;;;;;;30.35;15.43;;;;;;;4.87;100.00;98927.81;5322318;33;33638;-79
2023/01/16 11:21:24;;;;;;;31.10;16.27;;;;;;;4.75;100.00;98906.06;5322616;33;34106;-80
2023/01/16 11:24:34;;;;;;;33.20;16.10;;;;;;;4.77;100.00;98901.41;5306509;33;33862;-80
2023/01/16 11:27:37;;;;;;;33.92;16.83;;;;;;;4.77;100.00;98889.91;5319691;33;34027;-80
2023/01/16 11:30:46;;;;;;;35.03;16.58;;;;;;;4.82;100.00;98889.38;5321781;33;33463;-79
2023/01/16 11:34:01;;;;;;;34.67;16.00;;;;;;;4.67;100.00;98883.97;5318197;33;34229;-80
2023/01/16 11:37:06;;;;;;;35.33;17.42;;;;;;;4.58;100.00;98856.53;5324301;33;33769;-80
2023/01/16 11:40:23;;;;;;;36.80;16.45;;;;;;;4.60;100.00;98856.38;5317256;33;35497;-80
2023/01/16 11:46:56;;;;;;;32.42;15.75;;;;;;;4.61;100.00;98848.19;5324171;33;34126;-80
2023/01/16 11:49:59;;;;;;;33.00;16.87;;;;;;;4.59;100.00;98844.84;5314534;33;34178;-79
2023/01/16 11:53:01;;;;;;;31.48;15.63;;;;;;;4.51;100.00;98836.94;5311458;33;32910;-80
2023/01/16 11:56:35;;;;;;;32.17;15.43;;;;;;;4.40;100.00;98832.84;5317138;33;34068;-81
2023/01/16 12:00:07;;;;;;;33.47;16.50;;;;;;;4.27;100.00;98825.44;5324128;33;34444;-81
2023/01/16 12:03:30;;;;;;;34.63;16.08;;;;;;;4.30;100.00;98813.59;5326077;33;33735;-80
2023/01/16 12:06:56;;;;;;;35.13;17.40;;;;;;;4.15;100.00;98807.34;5311185;33;32451;-80
2023/01/16 12:10:14;;;;;;;34.30;16.00;;;;;;;4.17;100.00;98794.69;5320251;33;34369;-80
2023/01/16 12:16:56;;;;;;;34.13;15.35;;;;;;;4.14;100.00;98776.41;5307821;33;32509;-81
2023/01/16 12:20:17;;;;;;;36.97;16.45;;;;;;;4.17;100.00;98768.88;5324865;33;32458;-81
2023/01/16 12:23:36;;;;;;;32.70;15.77;;;;;;;4.20;100.00;98759.72;5310936;33;32643;-86
2023/01/16 12:26:55;;;;;;;32.88;15.55;;;;;;;4.21;100.00;98743.56;5314724;33;33991;-82
2023/01/16 12:30:17;;;;;;;34.92;16.15;;;;;;;4.09;100.00;98743.16;5326905;33;34199;-80
2023/01/16 12:33:54;;;;;;;33.70;15.65;;;;;;;4.11;100.00;98732.31;5321360;33;33927;-80
2023/01/16 12:37:17;;;;;;;32.40;15.70;;;;;;;4.19;100.00;98724.25;5314903;33;33736;-80
2023/01/16 12:40:39;;;;;;;34.47;15.38;;;;;;;4.14;100.00;98723.97;5311646;33;33287;-79
2023/01/16 12:43:54;;;;;;;39.10;15.63;;;;;;;4.17;100.00;98725.44;5326011;33;34992;-80
2023/01/16 12:47:25;;;;;;;36.42;16.33;;;;;;;4.14;100.00;98715.97;5316099;33;34550;-81
2023/01/16 12:50:46;;;;;;;36.97;16.52;;;;;;;4.13;100.00;98716.97;5325258;33;33830;-80
2023/01/16 12:54:24;;;;;;;34.42;15.73;;;;;;;4.02;100.00;98704.91;5315514;33;33097;-81
2023/01/16 12:57:54;;;;;;;35.08;15.27;;;;;;;4.00;100.00;98685.59;5328207;33;34814;-80
2023/01/16 13:01:18;;;;;;;35.17;16.55;;;;;;;4.03;100.00;98687.09;5317904;33;33658;-80
2023/01/16 13:04:37;;;;;;;35.72;16.12;;;;;;;4.04;100.00;98692.25;5307572;33;32513;-80
2023/01/16 13:07:49;;;;;;;34.78;15.98;;;;;;;4.05;100.00;98687.75;5319534;33;35215;-81
2023/01/16 13:14:25;;;;;;;41.92;16.67;;;;;;;4.05;100.00;98674.44;5323043;33;33685;-81
2023/01/16 13:17:44;;;;;;;36.78;16.37;;;;;;;4.08;100.00;98671.41;5326756;33;34186;-81
2023/01/16 13:20:51;;;;;;;;;;;;;;;4.06;100.00;98654.78;5327956;33;34097;-81
2023/01/16 13:24:16;;;;;;;40.78;17.95;;;;;;;4.06;100.00;98650.28;5314204;33;33565;-81
2023/01/16 13:27:38;;;;;;;35.25;16.42;;;;;;;4.18;100.00;98650.66;5322097;33;34502;-80
2023/01/16 13:30:41;;;;;;;36.33;18.33;;;;;;;4.09;100.00;98649.09;5317688;33;33358;-81
2023/01/16 13:33:48;;;;;;;37.45;18.50;;;;;;;4.13;100.00;98641.59;5324680;33;34100;-81
2023/01/16 13:37:29;;;;;;;38.22;18.58;;;;;;;4.00;100.00;98652.81;5324378;33;34728;-81
2023/01/16 13:41:11;;;;;;;37.35;17.20;;;;;;;3.93;100.00;98649.22;5324770;33;33962;-81
2023/01/16 13:47:50;;;;;;;41.28;19.62;;;;;;;3.85;100.00;98640.28;5324199;33;33958;-81
2023/01/16 13:51:09;;;;;;;36.85;17.95;;;;;;;3.77;100.00;98643.03;5325579;33;34030;-81
2023/01/16 13:54:26;;;;;;;33.97;18.58;;;;;;;3.69;100.00;98644.91;5324382;33;34658;-81
2023/01/16 13:57:29;;;;;;;34.90;16.92;;;;;;;3.66;100.00;98655.88;5324564;33;33680;-81
2023/01/16 14:00:33;;;;;;;34.33;17.70;;;;;;;3.68;100.00;98641.41;5325906;33;33931;-81
2023/01/16 14:03:36;;;;;;;36.88;17.95;;;;;;;3.66;100.00;98637.25;5333577;33;34118;-81
2023/01/16 14:10:24;;;;;;;38.47;16.92;;;;;;;3.76;100.00;98627.22;5325072;33;34751;-80
2023/01/16 14:13:37;;;;;;;;;;;;;;;3.74;100.00;98624.72;5326206;33;33822;-81
2023/01/16 14:16:41;;;;;;;36.50;16.05;;;;;;;3.71;100.00;98618.94;5323110;33;34182;-81
2023/01/16 14:19:51;;;;;;;30.80;15.77;;;;;;;3.60;100.00;98613.03;5324282;33;33533;-81
2023/01/16 14:26:23;;;;;;;32.28;14.75;;;;;;;3.62;100.00;98602.19;5322401;33;34566;-82
2023/01/16 14:29:30;;;;;;;32.42;16.12;;;;;;;3.61;100.00;98593.38;5327531;33;34565;-81
2023/01/16 14:32:36;;;;;;;31.77;15.07;;;;;;;3.68;100.00;98588.19;5318143;33;34273;-82
2023/01/16 14:35:50;;;;;;;32.03;16.52;;;;;;;3.67;100.00;98575.06;5304818;33;33284;-82
2023/01/16 14:38:53;;;;;;;30.17;14.43;;;;;;;3.58;100.00;98564.47;5325257;33;33937;-83
2023/01/16 14:56:03;;;;;;;27.10;13.50;;;;;;;3.55;100.00;98550.69;5305925;33;32849;-80
2023/01/16 14:59:31;;;;;;;31.73;14.87;;;;;;;3.51;100.00;98547.56;5319367;33;33277;-81
2023/01/16 15:02:46;;;;;;;31.98;14.75;;;;;;;3.61;100.00;98544.66;5323495;33;34616;-81
2023/01/16 15:05:52;;;;;;;29.08;14.45;;;;;;;3.64;100.00;98534.50;5313360;33;34120;-82
2023/01/16 15:08:56;;;;;;;32.67;15.48;;;;;;;3.57;100.00;98524.75;5322225;33;33523;-81
2023/01/16 15:12:11;;;;;;;29.15;14.87;;;;;;;3.65;100.00;98519.34;5324097;33;33717;-82
2023/01/16 15:15:21;;;;;;;30.17;14.27;;;;;;;3.64;100.00;98512.38;5322390;33;35262;-81
2023/01/16 15:21:58;;;;;;;31.10;14.98;;;;;;;3.59;100.00;98504.09;5307547;33;34618;-81
2023/01/16 15:25:17;;;;;;;31.55;15.35;;;;;;;3.60;100.00;98500.44;5319089;33;33708;-81
2023/01/16 15:28:40;;;;;;;31.50;14.43;;;;;;;3.70;100.00;98494.88;5325781;33;34367;-81
2023/01/16 15:31:59;;;;;;;32.83;15.32;;;;;;;3.60;100.00;98487.97;5314496;33;32773;-87
2023/01/16 15:35:22;;;;;;;31.83;16.33;;;;;;;3.55;100.00;98489.50;5321221;33;33991;-81
2023/01/16 15:38:25;;;;;;;29.60;14.43;;;;;;;3.63;100.00;98490.28;5306406;33;33964;-81
2023/01/16 15:48:31;;;;;;;32.15;15.15;;;;;;;3.66;100.00;98477.59;5322772;33;35368;-81
2023/01/16 15:51:33;;;;;;;27.40;14.85;;;;;;;3.70;100.00;98465.59;5323084;33;33486;-81
2023/01/16 15:54:40;;;;;;;32.63;15.20;;;;;;;3.67;100.00;98464.13;5315572;33;33680;-81
2023/01/16 15:57:49;;;;;;;30.42;15.82;;;;;;;3.69;100.00;98454.13;5311604;33;32308;-81
2023/01/16 16:01:03;;;;;;;34.00;14.45;;;;;;;3.80;100.00;98461.69;5323381;33;34052;-81
2023/01/16 16:04:06;;;;;;;31.00;15.05;;;;;;;3.79;100.00;98459.19;5327335;33;34048;-81
2023/01/16 16:07:10;;;;;;;29.17;15.05;;;;;;;3.76;100.00;98468.34;5335112;33;34308;-80
2023/01/16 16:11:51;;;;;;;28.25;14.73;;;;;;;3.74;100.00;98461.56;5323443;33;33728;-81
2023/01/16 16:13:40;;;;;;;30.83;14.73;;;;;;;3.68;100.00;98460.44;5309992;33;33376;-81
2023/01/16 16:20:26;;;;;;;28.45;13.48;;;;;;;3.74;100.00;98449.06;5326162;33;34031;-81
2023/01/16 16:23:29;;;;;;;29.90;15.40;;;;;;;3.73;100.00;98450.09;5329654;33;34115;-81
2023/01/16 16:26:42;;;;;;;28.17;13.75;;;;;;;3.80;100.00;98447.50;5326147;33;33733;-81
2023/01/16 16:29:53;;;;;;;29.95;14.57;;;;;;;3.82;100.00;98429.53;5326243;33;34921;-80
2023/01/16 16:32:56;;;;;;;29.12;14.50;;;;;;;3.80;100.00;98437.72;5326358;33;34571;-80
2023/01/16 16:36:00;;;;;;;30.05;15.05;;;;;;;3.84;100.00;98432.84;5312493;33;33154;-81
2023/01/16 16:39:03;;;;;;;28.75;14.13;;;;;;;3.76;100.00;98422.28;5318623;33;33118;-80
2023/01/16 16:42:27;;;;;;;32.75;16.08;;;;;;;3.78;100.00;98415.78;5330103;33;34851;-80
2023/01/16 16:45:35;;;;;;;30.75;15.93;;;;;;;3.88;100.00;98415.50;5318115;33;32436;-81
2023/01/16 16:48:38;;;;;;;34.17;16.73;;;;;;;3.93;100.00;98396.31;5325623;33;35515;-81
2023/01/16 16:51:41;;;;;;;33.25;15.90;;;;;;;3.93;100.00;98388.34;5324966;33;34542;-81
